sensor_id;sensor_type;location;lat;lon;timestamp;pressure;altitude;pressure_sealevel;temperature;humidity
70229;BME280;57617;51.988;5.854;2022-11-25T00:01:30;100553.84;;;11.31;68.47
70229;BME280;57617;51.988;5.854;2022-11-25T00:03:57;100552.78;;;11.32;68.48
70229;BME280;57617;51.988;5.854;2022-11-25T00:06:28;100544.06;;;11.30;68.73
70229;BME280;57617;51.988;5.854;2022-11-25T00:09:08;100539.94;;;11.28;69.17
70229;BME280;57617;51.988;5.854;2022-11-25T00:11:35;100532.53;;;11.23;69.26
70229;BME280;57617;51.988;5.854;2022-11-25T00:14:02;100532.47;;;11.18;69.48
70229;BME280;57617;51.988;5.854;2022-11-25T00:16:27;100531.13;;;11.21;69.66
70229;BME280;57617;51.988;5.854;2022-11-25T00:18:54;100529.50;;;11.20;69.65
70229;BME280;57617;51.988;5.854;2022-11-25T00:21:22;100523.81;;;11.21;69.93
70229;BME280;57617;51.988;5.854;2022-11-25T00:23:56;100518.63;;;11.20;70.10
70229;BME280;57617;51.988;5.854;2022-11-25T00:26:24;100517.81;;;11.19;70.17
70229;BME280;57617;51.988;5.854;2022-11-25T00:28:50;100522.66;;;11.17;70.24
70229;BME280;57617;51.988;5.854;2022-11-25T00:31:21;100516.03;;;11.08;70.31
70229;BME280;57617;51.988;5.854;2022-11-25T00:33:47;100515.44;;;11.06;70.50
70229;BME280;57617;51.988;5.854;2022-11-25T00:38:44;100519.25;;;11.05;70.86
70229;BME280;57617;51.988;5.854;2022-11-25T00:41:10;100514.91;;;11.04;71.06
70229;BME280;57617;51.988;5.854;2022-11-25T00:43:54;100510.53;;;11.03;71.19
70229;BME280;57617;51.988;5.854;2022-11-25T00:46:38;100509.38;;;10.99;71.23
70229;BME280;57617;51.988;5.854;2022-11-25T00:49:03;100504.69;;;10.95;71.19
70229;BME280;57617;51.988;5.854;2022-11-25T00:51:28;100498.69;;;10.93;71.29
70229;BME280;57617;51.988;5.854;2022-11-25T00:53:54;100510.97;;;10.95;71.47
70229;BME280;57617;51.988;5.854;2022-11-25T00:56:19;100515.84;;;10.93;71.53
70229;BME280;57617;51.988;5.854;2022-11-25T00:58:44;100512.53;;;10.91;71.88
70229;BME280;57617;51.988;5.854;2022-11-25T01:01:10;100518.19;;;10.90;71.69
70229;BME280;57617;51.988;5.854;2022-11-25T01:03:36;100504.53;;;10.85;71.76
70229;BME280;57617;51.988;5.854;2022-11-25T01:06:07;100510.56;;;10.87;72.14
70229;BME280;57617;51.988;5.854;2022-11-25T01:08:34;100499.78;;;10.75;71.96
70229;BME280;57617;51.988;5.854;2022-11-25T01:11:05;100503.97;;;10.83;72.19
70229;BME280;57617;51.988;5.854;2022-11-25T01:13:30;100498.88;;;10.86;71.95
70229;BME280;57617;51.988;5.854;2022-11-25T01:15:56;100498.88;;;10.86;72.67
70229;BME280;57617;51.988;5.854;2022-11-25T01:18:22;100504.22;;;10.81;72.34
70229;BME280;57617;51.988;5.854;2022-11-25T01:20:47;100503.75;;;10.84;72.26
70229;BME280;57617;51.988;5.854;2022-11-25T01:23:12;100492.28;;;10.82;72.32
70229;BME280;57617;51.988;5.854;2022-11-25T01:25:38;100498.53;;;10.83;72.82
70229;BME280;57617;51.988;5.854;2022-11-25T01:28:04;100506.13;;;10.81;72.64
70229;BME280;57617;51.988;5.854;2022-11-25T01:30:29;100507.53;;;10.83;72.57
70229;BME280;57617;51.988;5.854;2022-11-25T01:32:54;100511.88;;;10.84;72.49
70229;BME280;57617;51.988;5.854;2022-11-25T01:35:20;100498.06;;;10.86;72.59
70229;BME280;57617;51.988;5.854;2022-11-25T01:37:45;100504.53;;;10.85;71.80
70229;BME280;57617;51.988;5.854;2022-11-25T01:40:10;100498.63;;;10.88;72.62
70229;BME280;57617;51.988;5.854;2022-11-25T01:42:45;100510.03;;;10.90;73.25
70229;BME280;57617;51.988;5.854;2022-11-25T01:47:55;100498.13;;;10.91;72.79
70229;BME280;57617;51.988;5.854;2022-11-25T01:50:23;100503.56;;;10.91;72.84
70229;BME280;57617;51.988;5.854;2022-11-25T01:52:51;100499.53;;;10.93;73.04
70229;BME280;57617;51.988;5.854;2022-11-25T01:55:21;100497.28;;;10.90;72.97
70229;BME280;57617;51.988;5.854;2022-11-25T01:57:52;100503.88;;;10.94;72.99
70229;BME280;57617;51.988;5.854;2022-11-25T02:00:19;100498.22;;;10.96;73.17
70229;BME280;57617;51.988;5.854;2022-11-25T02:02:46;100506.59;;;10.94;73.10
70229;BME280;57617;51.988;5.854;2022-11-25T02:05:16;100499.00;;;10.96;73.02
70229;BME280;57617;51.988;5.854;2022-11-25T02:07:45;100497.69;;;10.99;72.92
70229;BME280;57617;51.988;5.854;2022-11-25T02:10:24;100493.81;;;10.95;73.45
70229;BME280;57617;51.988;5.854;2022-11-25T02:12:50;100505.03;;;10.98;72.85
70229;BME280;57617;51.988;5.854;2022-11-25T02:15:17;100499.31;;;11.00;73.06
70229;BME280;57617;51.988;5.854;2022-11-25T02:17:42;100500.16;;;11.00;73.15
70229;BME280;57617;51.988;5.854;2022-11-25T02:20:13;100507.81;;;11.03;73.48
70229;BME280;57617;51.988;5.854;2022-11-25T02:22:54;100510.84;;;11.07;73.74
70229;BME280;57617;51.988;5.854;2022-11-25T02:25:23;100504.59;;;11.06;73.23
70229;BME280;57617;51.988;5.854;2022-11-25T02:27:53;100499.75;;;11.08;73.18
70229;BME280;57617;51.988;5.854;2022-11-25T02:30:19;100507.38;;;11.11;73.42
70229;BME280;57617;51.988;5.854;2022-11-25T02:32:45;100515.03;;;11.14;72.97
70229;BME280;57617;51.988;5.854;2022-11-25T02:37:48;100512.50;;;11.08;73.37
70229;BME280;57617;51.988;5.854;2022-11-25T02:40:14;100524.75;;;11.10;73.23
70229;BME280;57617;51.988;5.854;2022-11-25T02:42:40;100525.00;;;11.09;73.10
70229;BME280;57617;51.988;5.854;2022-11-25T02:45:09;100525.00;;;11.09;73.47
70229;BME280;57617;51.988;5.854;2022-11-25T02:47:36;100523.69;;;11.11;73.47
70229;BME280;57617;51.988;5.854;2022-11-25T02:50:01;100527.53;;;11.15;73.55
70229;BME280;57617;51.988;5.854;2022-11-25T02:52:27;100525.91;;;11.14;73.70
70229;BME280;57617;51.988;5.854;2022-11-25T02:54:52;100541.44;;;11.19;73.45
70229;BME280;57617;51.988;5.854;2022-11-25T02:57:17;100548.84;;;11.23;73.13
70229;BME280;57617;51.988;5.854;2022-11-25T02:59:42;100539.13;;;11.27;73.58
70229;BME280;57617;51.988;5.854;2022-11-25T03:02:08;100544.31;;;11.29;73.26
70229;BME280;57617;51.988;5.854;2022-11-25T03:04:34;100542.41;;;11.29;73.30
70229;BME280;57617;51.988;5.854;2022-11-25T03:06:59;100549.75;;;11.29;73.43
70229;BME280;57617;51.988;5.854;2022-11-25T03:09:24;100545.47;;;11.33;73.64
70229;BME280;57617;51.988;5.854;2022-11-25T03:11:50;100538.09;;;11.33;73.90
70229;BME280;57617;51.988;5.854;2022-11-25T03:14:33;100539.78;;;11.34;74.00
70229;BME280;57617;51.988;5.854;2022-11-25T03:16:59;100547.66;;;11.36;73.93
70229;BME280;57617;51.988;5.854;2022-11-25T03:19:24;100552.34;;;11.40;73.84
70229;BME280;57617;51.988;5.854;2022-11-25T03:21:49;100557.28;;;11.43;73.81
70229;BME280;57617;51.988;5.854;2022-11-25T03:24:15;100556.78;;;11.46;73.62
70229;BME280;57617;51.988;5.854;2022-11-25T03:26:40;100558.41;;;11.47;73.76
70229;BME280;57617;51.988;5.854;2022-11-25T03:29:05;100558.16;;;11.49;73.72
70229;BME280;57617;51.988;5.854;2022-11-25T03:31:31;100551.91;;;11.48;73.88
70229;BME280;57617;51.988;5.854;2022-11-25T03:33:57;100554.91;;;11.47;74.00
70229;BME280;57617;51.988;5.854;2022-11-25T03:36:22;100551.09;;;11.48;74.03
70229;BME280;57617;51.988;5.854;2022-11-25T03:38:47;100544.31;;;11.50;73.71
70229;BME280;57617;51.988;5.854;2022-11-25T03:41:13;100528.50;;;11.47;74.41
70229;BME280;57617;51.988;5.854;2022-11-25T03:43:38;100512.19;;;11.47;74.38
70229;BME280;57617;51.988;5.854;2022-11-25T03:46:03;100515.97;;;11.46;74.56
70229;BME280;57617;51.988;5.854;2022-11-25T03:48:29;100515.75;;;11.48;74.67
70229;BME280;57617;51.988;5.854;2022-11-25T03:50:54;100538.31;;;11.48;74.57
70229;BME280;57617;51.988;5.854;2022-11-25T03:53:19;100557.41;;;11.53;74.36
70229;BME280;57617;51.988;5.854;2022-11-25T03:55:46;100545.72;;;11.53;74.59
70229;BME280;57617;51.988;5.854;2022-11-25T03:58:12;100537.28;;;11.54;74.63
70229;BME280;57617;51.988;5.854;2022-11-25T04:00:37;100544.94;;;11.57;74.52
70229;BME280;57617;51.988;5.854;2022-11-25T04:03:03;100544.38;;;11.55;74.42
70229;BME280;57617;51.988;5.854;2022-11-25T04:05:28;100548.25;;;11.59;74.43
70229;BME280;57617;51.988;5.854;2022-11-25T04:07:54;100553.19;;;11.62;74.46
70229;BME280;57617;51.988;5.854;2022-11-25T04:10:19;100546.94;;;11.62;74.21
70229;BME280;57617;51.988;5.854;2022-11-25T04:12:44;100551.03;;;11.64;74.55
70229;BME280;57617;51.988;5.854;2022-11-25T04:15:16;100547.25;;;11.65;74.33
70229;BME280;57617;51.988;5.854;2022-11-25T04:17:41;100551.03;;;11.64;74.36
70229;BME280;57617;51.988;5.854;2022-11-25T04:20:07;100555.16;;;11.67;74.16
70229;BME280;57617;51.988;5.854;2022-11-25T04:22:33;100569.59;;;11.67;74.20
70229;BME280;57617;51.988;5.854;2022-11-25T04:24:58;100568.44;;;11.63;74.75
70229;BME280;57617;51.988;5.854;2022-11-25T04:27:23;100579.31;;;11.63;74.40
70229;BME280;57617;51.988;5.854;2022-11-25T04:29:49;100580.66;;;11.61;74.61
70229;BME280;57617;51.988;5.854;2022-11-25T04:32:14;100581.63;;;11.55;74.33
70229;BME280;57617;51.988;5.854;2022-11-25T04:34:39;100588.00;;;11.60;74.38
70229;BME280;57617;51.988;5.854;2022-11-25T04:37:05;100577.38;;;11.59;74.82
70229;BME280;57617;51.988;5.854;2022-11-25T04:39:30;100577.59;;;11.57;74.27
70229;BME280;57617;51.988;5.854;2022-11-25T04:41:55;100590.09;;;11.58;74.72
70229;BME280;57617;51.988;5.854;2022-11-25T04:44:40;100592.03;;;11.58;74.78
70229;BME280;57617;51.988;5.854;2022-11-25T04:47:06;100593.06;;;11.57;74.53
70229;BME280;57617;51.988;5.854;2022-11-25T04:49:31;100601.22;;;11.57;74.78
70229;BME280;57617;51.988;5.854;2022-11-25T04:51:56;100613.78;;;11.58;74.86
70229;BME280;57617;51.988;5.854;2022-11-25T04:54:21;100618.97;;;11.59;74.89
70229;BME280;57617;51.988;5.854;2022-11-25T04:56:47;100629.84;;;11.59;74.60
70229;BME280;57617;51.988;5.854;2022-11-25T04:59:12;100628.19;;;11.58;75.08
70229;BME280;57617;51.988;5.854;2022-11-25T05:01:56;100633.63;;;11.58;74.98
70229;BME280;57617;51.988;5.854;2022-11-25T05:04:21;100625.91;;;11.50;75.11
70229;BME280;57617;51.988;5.854;2022-11-25T05:06:46;100642.41;;;11.60;74.75
70229;BME280;57617;51.988;5.854;2022-11-25T05:09:12;100645.69;;;11.62;74.98
70229;BME280;57617;51.988;5.854;2022-11-25T05:11:37;100640.25;;;11.62;75.09
70229;BME280;57617;51.988;5.854;2022-11-25T05:14:02;100645.44;;;11.64;75.18
70229;BME280;57617;51.988;5.854;2022-11-25T05:16:27;100649.25;;;11.63;75.08
70229;BME280;57617;51.988;5.854;2022-11-25T05:18:54;100640.75;;;11.59;75.23
70229;BME280;57617;51.988;5.854;2022-11-25T05:21:20;100646.25;;;11.64;75.16
70229;BME280;57617;51.988;5.854;2022-11-25T05:23:46;100656.09;;;11.65;75.04
70229;BME280;57617;51.988;5.854;2022-11-25T05:26:11;100657.97;;;11.65;75.26
70229;BME280;57617;51.988;5.854;2022-11-25T05:28:36;100657.72;;;11.66;75.26
70229;BME280;57617;51.988;5.854;2022-11-25T05:31:01;100655.00;;;11.66;75.12
70229;BME280;57617;51.988;5.854;2022-11-25T05:33:27;100661.78;;;11.64;74.84
70229;BME280;57617;51.988;5.854;2022-11-25T05:35:57;100651.13;;;11.62;75.62
70229;BME280;57617;51.988;5.854;2022-11-25T05:38:23;100654.41;;;11.64;75.37
70229;BME280;57617;51.988;5.854;2022-11-25T05:40:49;100660.69;;;11.65;75.38
70229;BME280;57617;51.988;5.854;2022-11-25T05:43:14;100663.66;;;11.63;75.54
70229;BME280;57617;51.988;5.854;2022-11-25T05:45:40;100664.19;;;11.60;75.44
70229;BME280;57617;51.988;5.854;2022-11-25T05:48:05;100662.50;;;11.59;75.55
70229;BME280;57617;51.988;5.854;2022-11-25T05:50:30;100665.81;;;11.61;75.45
70229;BME280;57617;51.988;5.854;2022-11-25T05:52:55;100665.22;;;11.59;75.34
70229;BME280;57617;51.988;5.854;2022-11-25T05:55:21;100667.94;;;11.59;75.39
70229;BME280;57617;51.988;5.854;2022-11-25T05:57:46;100671.50;;;11.60;75.42
70229;BME280;57617;51.988;5.854;2022-11-25T06:00:12;100678.09;;;11.64;75.77
70229;BME280;57617;51.988;5.854;2022-11-25T06:02:37;100670.72;;;11.64;75.33
70229;BME280;57617;51.988;5.854;2022-11-25T06:05:03;100662.56;;;11.64;75.49
70229;BME280;57617;51.988;5.854;2022-11-25T06:07:28;100669.09;;;11.63;75.50
70229;BME280;57617;51.988;5.854;2022-11-25T06:09:53;100677.78;;;11.60;75.59
70229;BME280;57617;51.988;5.854;2022-11-25T06:12:21;100688.66;;;11.60;75.42
70229;BME280;57617;51.988;5.854;2022-11-25T06:14:47;100696.81;;;11.60;75.52
70229;BME280;57617;51.988;5.854;2022-11-25T06:17:12;100700.59;;;11.59;75.36
70229;BME280;57617;51.988;5.854;2022-11-25T06:19:37;100695.75;;;11.61;75.41
70229;BME280;57617;51.988;5.854;2022-11-25T06:22:03;100699.25;;;11.62;75.30
70229;BME280;57617;51.988;5.854;2022-11-25T06:24:28;100702.81;;;11.62;75.43
70229;BME280;57617;51.988;5.854;2022-11-25T06:26:54;100706.63;;;11.61;75.62
70229;BME280;57617;51.988;5.854;2022-11-25T06:29:19;100707.19;;;11.63;75.39
70229;BME280;57617;51.988;5.854;2022-11-25T06:31:45;100704.69;;;11.62;75.64
70229;BME280;57617;51.988;5.854;2022-11-25T06:34:10;100708.75;;;11.59;75.50
70229;BME280;57617;51.988;5.854;2022-11-25T06:36:35;100712.53;;;11.58;75.41
70229;BME280;57617;51.988;5.854;2022-11-25T06:39:01;100709.47;;;11.55;75.08
70229;BME280;57617;51.988;5.854;2022-11-25T06:41:26;100715.16;;;11.53;75.08
70229;BME280;57617;51.988;5.854;2022-11-25T06:43:51;100711.88;;;11.51;75.29
70229;BME280;57617;51.988;5.854;2022-11-25T06:46:18;100713.69;;;11.46;75.16
70229;BME280;57617;51.988;5.854;2022-11-25T06:48:44;100709.00;;;11.41;75.20
70229;BME280;57617;51.988;5.854;2022-11-25T06:51:11;100717.41;;;11.40;75.09
70229;BME280;57617;51.988;5.854;2022-11-25T06:53:37;100712.13;;;11.33;75.33
70229;BME280;57617;51.988;5.854;2022-11-25T06:56:11;100723.84;;;11.34;75.20
70229;BME280;57617;51.988;5.854;2022-11-25T06:58:38;100735.19;;;11.31;75.33
70229;BME280;57617;51.988;5.854;2022-11-25T07:01:11;100740.31;;;11.27;75.22
70229;BME280;57617;51.988;5.854;2022-11-25T07:03:37;100738.66;;;11.26;75.25
70229;BME280;57617;51.988;5.854;2022-11-25T07:06:03;100745.19;;;11.25;75.17
70229;BME280;57617;51.988;5.854;2022-11-25T07:08:28;100749.78;;;11.25;75.21
70229;BME280;57617;51.988;5.854;2022-11-25T07:10:54;100753.81;;;11.22;74.98
70229;BME280;57617;51.988;5.854;2022-11-25T07:13:20;100745.34;;;11.19;75.05
70229;BME280;57617;51.988;5.854;2022-11-25T07:15:46;100759.50;;;11.21;75.01
70229;BME280;57617;51.988;5.854;2022-11-25T07:18:11;100762.47;;;11.19;74.97
70229;BME280;57617;51.988;5.854;2022-11-25T07:20:37;100764.38;;;11.19;74.89
70229;BME280;57617;51.988;5.854;2022-11-25T07:23:02;100772.19;;;11.15;74.90
70229;BME280;57617;51.988;5.854;2022-11-25T07:25:27;100770.78;;;11.13;74.95
70229;BME280;57617;51.988;5.854;2022-11-25T07:27:53;100772.91;;;11.11;74.49
70229;BME280;57617;51.988;5.854;2022-11-25T07:30:18;100779.41;;;11.10;74.84
70229;BME280;57617;51.988;5.854;2022-11-25T07:32:43;100784.53;;;11.06;75.05
70229;BME280;57617;51.988;5.854;2022-11-25T07:35:09;100783.72;;;11.06;75.12
70229;BME280;57617;51.988;5.854;2022-11-25T07:37:34;100784.19;;;11.03;74.78
70229;BME280;57617;51.988;5.854;2022-11-25T07:39:59;100783.97;;;11.04;74.68
70229;BME280;57617;51.988;5.854;2022-11-25T07:42:24;100791.28;;;11.04;74.77
70229;BME280;57617;51.988;5.854;2022-11-25T07:44:50;100791.03;;;11.05;74.75
70229;BME280;57617;51.988;5.854;2022-11-25T07:47:16;100794.75;;;10.99;74.65
70229;BME280;57617;51.988;5.854;2022-11-25T07:49:41;100798.53;;;10.98;74.88
70229;BME280;57617;51.988;5.854;2022-11-25T07:52:07;100800.66;;;10.96;75.06
70229;BME280;57617;51.988;5.854;2022-11-25T07:54:33;100806.69;;;10.98;75.21
70229;BME280;57617;51.988;5.854;2022-11-25T07:56:59;100801.47;;;10.97;74.88
70229;BME280;57617;51.988;5.854;2022-11-25T07:59:24;100810.94;;;10.94;74.66
70229;BME280;57617;51.988;5.854;2022-11-25T08:01:51;100808.81;;;10.96;74.84
70229;BME280;57617;51.988;5.854;2022-11-25T08:04:17;100818.88;;;10.96;74.81
70229;BME280;57617;51.988;5.854;2022-11-25T08:06:44;100824.78;;;10.93;75.16
70229;BME280;57617;51.988;5.854;2022-11-25T08:09:13;100833.50;;;10.95;75.00
70229;BME280;57617;51.988;5.854;2022-11-25T08:11:39;100834.34;;;10.95;75.06
70229;BME280;57617;51.988;5.854;2022-11-25T08:14:05;100835.75;;;10.98;75.09
70229;BME280;57617;51.988;5.854;2022-11-25T08:16:31;100842.59;;;11.00;75.09
70229;BME280;57617;51.988;5.854;2022-11-25T08:19:00;100845.53;;;10.99;75.12
70229;BME280;57617;51.988;5.854;2022-11-25T08:21:26;100840.34;;;10.97;75.23
70229;BME280;57617;51.988;5.854;2022-11-25T08:23:52;100847.19;;;11.00;75.30
70229;BME280;57617;51.988;5.854;2022-11-25T08:26:29;100839.41;;;11.03;75.25
70229;BME280;57617;51.988;5.854;2022-11-25T08:28:56;100853.66;;;11.10;75.14
70229;BME280;57617;51.988;5.854;2022-11-25T08:31:25;100861.91;;;11.15;75.16
70229;BME280;57617;51.988;5.854;2022-11-25T08:33:51;100866.84;;;11.18;75.27
70229;BME280;57617;51.988;5.854;2022-11-25T08:36:18;100870.72;;;11.22;74.92
70229;BME280;57617;51.988;5.854;2022-11-25T08:38:45;100866.94;;;11.23;75.05
70229;BME280;57617;51.988;5.854;2022-11-25T08:41:22;100871.81;;;11.21;75.05
70229;BME280;57617;51.988;5.854;2022-11-25T08:43:47;100877.44;;;11.31;74.97
70229;BME280;57617;51.988;5.854;2022-11-25T08:46:17;100884.59;;;11.37;75.15
70229;BME280;57617;51.988;5.854;2022-11-25T08:48:42;100874.56;;;11.38;74.97
70229;BME280;57617;51.988;5.854;2022-11-25T08:51:12;100881.41;;;11.40;74.71
70229;BME280;57617;51.988;5.854;2022-11-25T08:53:38;100893.69;;;11.43;75.11
70229;BME280;57617;51.988;5.854;2022-11-25T08:56:05;100883.16;;;11.46;74.92
70229;BME280;57617;51.988;5.854;2022-11-25T08:58:30;100887.84;;;11.51;74.91
70229;BME280;57617;51.988;5.854;2022-11-25T09:00:56;100894.69;;;11.53;75.17
70229;BME280;57617;51.988;5.854;2022-11-25T09:03:21;100893.28;;;11.51;74.73
70229;BME280;57617;51.988;5.854;2022-11-25T09:05:47;100892.25;;;11.52;74.82
70229;BME280;57617;51.988;5.854;2022-11-25T09:08:13;100902.59;;;11.55;74.83
70229;BME280;57617;51.988;5.854;2022-11-25T09:10:39;100907.56;;;11.58;74.79
70229;BME280;57617;51.988;5.854;2022-11-25T09:13:05;100904.63;;;11.59;74.68
70229;BME280;57617;51.988;5.854;2022-11-25T09:15:30;100912.53;;;11.61;74.83
70229;BME280;57617;51.988;5.854;2022-11-25T09:18:04;100912.63;;;11.66;74.59
70229;BME280;57617;51.988;5.854;2022-11-25T09:20:31;100912.63;;;11.66;74.82
70229;BME280;57617;51.988;5.854;2022-11-25T09:23:00;100923.03;;;11.69;75.02
70229;BME280;57617;51.988;5.854;2022-11-25T09:25:26;100919.81;;;11.72;74.67
70229;BME280;57617;51.988;5.854;2022-11-25T09:27:52;100928.25;;;11.70;74.48
70229;BME280;57617;51.988;5.854;2022-11-25T09:30:18;100931.28;;;11.74;74.88
70229;BME280;57617;51.988;5.854;2022-11-25T09:32:43;100937.06;;;11.77;74.94
70229;BME280;57617;51.988;5.854;2022-11-25T09:35:08;100938.22;;;11.81;74.48
70229;BME280;57617;51.988;5.854;2022-11-25T09:37:34;100940.94;;;11.81;74.74
70229;BME280;57617;51.988;5.854;2022-11-25T09:39:59;100947.28;;;11.87;74.43
70229;BME280;57617;51.988;5.854;2022-11-25T09:42:57;100951.41;;;11.89;74.36
70229;BME280;57617;51.988;5.854;2022-11-25T09:54:26;100969.66;;;12.05;74.03
70229;BME280;57617;51.988;5.854;2022-11-25T10:00:12;100976.03;;;12.11;73.92
70229;BME280;57617;51.988;5.854;2022-11-25T10:03:01;100979.69;;;12.16;73.37
70229;BME280;57617;51.988;5.854;2022-11-25T10:05:31;100985.69;;;12.18;73.93
70229;BME280;57617;51.988;5.854;2022-11-25T10:08:07;100991.13;;;12.18;73.83
70229;BME280;57617;51.988;5.854;2022-11-25T10:10:43;100994.41;;;12.20;73.60
70229;BME280;57617;51.988;5.854;2022-11-25T10:13:19;100991.69;;;12.20;73.53
70229;BME280;57617;51.988;5.854;2022-11-25T10:15:48;100994.78;;;12.24;73.57
70229;BME280;57617;51.988;5.854;2022-11-25T10:18:20;100998.41;;;12.29;73.76
70229;BME280;57617;51.988;5.854;2022-11-25T10:20:49;100996.00;;;12.33;73.13
70229;BME280;57617;51.988;5.854;2022-11-25T10:23:25;100998.00;;;12.37;72.79
70229;BME280;57617;51.988;5.854;2022-11-25T10:25:56;100996.59;;;12.35;72.96
70229;BME280;57617;51.988;5.854;2022-11-25T10:28:28;101005.56;;;12.35;73.19
70229;BME280;57617;51.988;5.854;2022-11-25T10:31:17;101004.94;;;12.45;72.58
70229;BME280;57617;51.988;5.854;2022-11-25T10:33:45;101012.59;;;12.48;72.97
70229;BME280;57617;51.988;5.854;2022-11-25T10:36:23;101009.13;;;12.52;72.83
70229;BME280;57617;51.988;5.854;2022-11-25T10:39:01;101013.28;;;12.55;72.41
70229;BME280;57617;51.988;5.854;2022-11-25T10:41:32;101016.06;;;12.60;72.68
70229;BME280;57617;51.988;5.854;2022-11-25T10:44:00;101008.22;;;12.63;72.64
70229;BME280;57617;51.988;5.854;2022-11-25T10:46:36;101009.88;;;12.64;72.43
70229;BME280;57617;51.988;5.854;2022-11-25T10:49:14;101013.50;;;12.70;72.40
70229;BME280;57617;51.988;5.854;2022-11-25T10:51:46;101020.84;;;12.69;71.91
70229;BME280;57617;51.988;5.854;2022-11-25T10:54:18;101016.47;;;12.68;71.32
70229;BME280;57617;51.988;5.854;2022-11-25T10:56:58;101023.09;;;12.72;71.92
70229;BME280;57617;51.988;5.854;2022-11-25T10:59:53;101025.59;;;12.79;70.74
70229;BME280;57617;51.988;5.854;2022-11-25T11:02:29;101035.13;;;12.76;71.63
70229;BME280;57617;51.988;5.854;2022-11-25T11:05:15;101034.06;;;12.77;71.41
70229;BME280;57617;51.988;5.854;2022-11-25T11:07:44;101039.84;;;12.81;71.81
70229;BME280;57617;51.988;5.854;2022-11-25T11:10:21;101034.38;;;12.81;71.12
70229;BME280;57617;51.988;5.854;2022-11-25T11:15:26;101040.16;;;12.84;71.14
70229;BME280;57617;51.988;5.854;2022-11-25T11:17:54;101050.53;;;12.87;71.58
70229;BME280;57617;51.988;5.854;2022-11-25T11:20:27;101056.91;;;12.93;70.66
70229;BME280;57617;51.988;5.854;2022-11-25T11:23:02;101058.41;;;13.00;71.13
70229;BME280;57617;51.988;5.854;2022-11-25T11:25:31;101060.97;;;13.07;71.22
70229;BME280;57617;51.988;5.854;2022-11-25T11:27:58;101059.06;;;13.07;70.97
70229;BME280;57617;51.988;5.854;2022-11-25T11:30:26;101070.63;;;13.14;70.73
70229;BME280;57617;51.988;5.854;2022-11-25T11:33:26;101072.91;;;13.22;69.57
70229;BME280;57617;51.988;5.854;2022-11-25T11:36:09;101077.28;;;13.23;69.91
70229;BME280;57617;51.988;5.854;2022-11-25T11:41:43;101082.31;;;13.31;69.57
70229;BME280;57617;51.988;5.854;2022-11-25T11:44:20;101095.19;;;13.36;70.19
70229;BME280;57617;51.988;5.854;2022-11-25T11:50:01;101091.28;;;13.48;69.23
70229;BME280;57617;51.988;5.854;2022-11-25T11:55:25;101095.09;;;13.47;68.46
70229;BME280;57617;51.988;5.854;2022-11-25T11:58:13;101095.16;;;13.52;68.31
70229;BME280;57617;51.988;5.854;2022-11-25T12:06:26;101105.72;;;13.65;68.93
70229;BME280;57617;51.988;5.854;2022-11-25T12:08:58;101103.53;;;13.67;68.82
70229;BME280;57617;51.988;5.854;2022-11-25T12:11:29;101112.63;;;13.73;69.04
70229;BME280;57617;51.988;5.854;2022-11-25T12:14:11;101115.69;;;13.76;67.86
70229;BME280;57617;51.988;5.854;2022-11-25T12:16:52;101130.66;;;13.74;68.07
70229;BME280;57617;51.988;5.854;2022-11-25T12:19:29;101113.06;;;13.65;68.19
70229;BME280;57617;51.988;5.854;2022-11-25T12:22:02;101128.66;;;13.69;68.15
70229;BME280;57617;51.988;5.854;2022-11-25T12:27:18;101137.44;;;13.71;68.79
70229;BME280;57617;51.988;5.854;2022-11-25T12:30:03;101131.22;;;13.76;68.37
70229;BME280;57617;51.988;5.854;2022-11-25T12:32:56;101142.53;;;13.84;67.94
70229;BME280;57617;51.988;5.854;2022-11-25T12:35:38;101137.72;;;13.91;68.13
70229;BME280;57617;51.988;5.854;2022-11-25T12:38:19;101140.50;;;13.96;67.71
70229;BME280;57617;51.988;5.854;2022-11-25T12:49:00;101156.91;;;13.96;68.04
70229;BME280;57617;51.988;5.854;2022-11-25T12:54:18;101166.53;;;14.04;68.46
70229;BME280;57617;51.988;5.854;2022-11-25T13:07:42;101183.13;;;13.97;67.26
70229;BME280;57617;51.988;5.854;2022-11-25T13:10:23;101174.84;;;13.92;67.60
70229;BME280;57617;51.988;5.854;2022-11-25T13:13:09;101178.75;;;13.96;67.90
70229;BME280;57617;51.988;5.854;2022-11-25T13:15:44;101192.72;;;14.00;67.85
70229;BME280;57617;51.988;5.854;2022-11-25T13:18:23;101189.13;;;13.99;67.24
70229;BME280;57617;51.988;5.854;2022-11-25T13:20:52;101191.88;;;13.99;68.01
70229;BME280;57617;51.988;5.854;2022-11-25T13:25:44;101198.25;;;14.05;67.67
70229;BME280;57617;51.988;5.854;2022-11-25T13:30:53;101209.03;;;13.95;67.63
70229;BME280;57617;51.988;5.854;2022-11-25T13:35:54;101208.06;;;13.84;67.54
70229;BME280;57617;51.988;5.854;2022-11-25T13:46:48;101221.97;;;13.83;67.44
70229;BME280;57617;51.988;5.854;2022-11-25T13:49:37;101229.59;;;13.81;67.88
70229;BME280;57617;51.988;5.854;2022-11-25T13:54:51;101232.25;;;13.76;68.06
70229;BME280;57617;51.988;5.854;2022-11-25T13:57:27;101233.31;;;13.75;67.85
70229;BME280;57617;51.988;5.854;2022-11-25T13:59:59;101238.47;;;13.71;68.22
70229;BME280;57617;51.988;5.854;2022-11-25T14:02:29;101239.28;;;13.72;68.17
70229;BME280;57617;51.988;5.854;2022-11-25T14:13:01;101255.25;;;13.63;68.44
70229;BME280;57617;51.988;5.854;2022-11-25T14:15:46;101230.06;;;13.40;68.46
70229;BME280;57617;51.988;5.854;2022-11-25T14:18:50;101251.56;;;13.53;68.27
70229;BME280;57617;51.988;5.854;2022-11-25T14:26:56;101252.47;;;13.42;68.26
70229;BME280;57617;51.988;5.854;2022-11-25T14:29:26;101264.44;;;13.41;68.71
70229;BME280;57617;51.988;5.854;2022-11-25T14:31:57;101278.94;;;13.41;68.76
70229;BME280;57617;51.988;5.854;2022-11-25T14:37:15;101279.91;;;13.35;69.32